Time;durP1;ratioP1;P1;durP2;ratioP2;P2;SDS_P1;SDS_P2;PMS_P1;PMS_P2;Temp;Humidity;BMP_temperature;BMP_pressure;BME280_temperature;BME280_humidity;BME280_pressure;Samples;Min_cycle;Max_cycle;Signal;HPM_P1;HPM_P2
2023/12/31 00:00:08;;;;;;;72.72;36.58;;;;;;;;;;5128861;27;20088;-68
2023/12/31 00:02:33;;;;;;;78.78;37.55;;;;;;;;;;5126067;27;20031;-69
2023/12/31 00:04:59;;;;;;;70.85;37.22;;;;;;;;;;5128122;27;20042;-67
2023/12/31 00:07:26;;;;;;;75.53;37.55;;;;;;;;;;5127205;27;20492;-69
2023/12/31 00:09:52;;;;;;;82.47;38.83;;;;;;;;;;5108605;27;20023;-68
2023/12/31 00:12:17;;;;;;;83.85;40.92;;;;;;;;;;5128543;27;20029;-69
2023/12/31 00:14:42;;;;;;;94.80;42.38;;;;;;;;;;5110966;27;20434;-69
2023/12/31 00:17:07;;;;;;;96.23;42.27;;;;;;;;;;5126595;27;20056;-68
2023/12/31 00:19:33;;;;;;;84.20;40.03;;;;;;;;;;5109838;27;20286;-68
2023/12/31 00:21:58;;;;;;;81.28;37.92;;;;;;;;;;5127362;27;20355;-68
2023/12/31 00:24:24;;;;;;;85.97;36.80;;;;;;;;;;5126397;27;20068;-69
2023/12/31 00:26:49;;;;;;;85.97;37.22;;;;;;;;;;5103981;27;20713;-69
2023/12/31 00:29:14;;;;;;;79.05;38.50;;;;;;;;;;5129215;27;20065;-69
2023/12/31 00:31:40;;;;;;;74.88;37.38;;;;;;;;;;5123691;27;20050;-69
2023/12/31 00:34:05;;;;;;;76.40;37.30;;;;;;;;;;5129193;27;20105;-68
2023/12/31 00:36:31;;;;;;;78.53;36.30;;;;;;;;;;5124964;27;20027;-69
2023/12/31 00:38:56;;;;;;;72.15;35.92;;;;;;;;;;5128627;27;20087;-69
2023/12/31 00:41:21;;;;;;;81.22;37.50;;;;;;;;;;5105884;27;20031;-69
2023/12/31 00:43:47;;;;;;;81.43;35.95;;;;;;;;;;5124360;27;20118;-70
2023/12/31 00:46:13;;;;;;;82.47;37.22;;;;;;;;;;5108146;27;20392;-70
2023/12/31 00:48:39;;;;;;;84.30;37.95;;;;;;;;;;5124497;27;20075;-69
2023/12/31 00:51:04;;;;;;;90.68;38.70;;;;;;;;;;5125861;27;20814;-70
2023/12/31 00:53:29;;;;;;;90.60;37.40;;;;;;;;;;5125857;27;20055;-70
2023/12/31 00:55:54;;;;;;;83.40;36.33;;;;;;;;;;5109630;27;20504;-70
2023/12/31 00:58:20;;;;;;;77.00;36.40;;;;;;;;;;5124358;27;20057;-70
2023/12/31 01:00:45;;;;;;;80.35;36.33;;;;;;;;;;5126618;27;20688;-70
2023/12/31 01:03:11;;;;;;;102.27;35.00;;;;;;;;;;5126099;27;20031;-70
2023/12/31 01:05:36;;;;;;;65.35;33.50;;;;;;;;;;5126962;27;20700;-70
2023/12/31 01:08:01;;;;;;;64.85;33.67;;;;;;;;;;5127424;27;20027;-70
2023/12/31 01:10:27;;;;;;;64.03;33.25;;;;;;;;;;5123740;27;20038;-69
2023/12/31 01:12:52;;;;;;;69.78;34.97;;;;;;;;;;5127791;27;20172;-69
2023/12/31 01:15:17;;;;;;;67.78;34.17;;;;;;;;;;5124907;27;20035;-69
2023/12/31 01:17:43;;;;;;;75.53;35.50;;;;;;;;;;5108222;27;20020;-68
2023/12/31 01:20:08;;;;;;;76.95;33.90;;;;;;;;;;5105113;27;20318;-69
2023/12/31 01:22:33;;;;;;;69.22;33.38;;;;;;;;;;5107554;27;20027;-69
2023/12/31 01:24:59;;;;;;;68.72;35.58;;;;;;;;;;5107789;27;20130;-69
2023/12/31 01:27:24;;;;;;;65.57;33.13;;;;;;;;;;5126208;27;20121;-68
2023/12/31 01:29:49;;;;;;;74.35;33.95;;;;;;;;;;5125877;27;20271;-69
2023/12/31 01:32:15;;;;;;;76.97;34.90;;;;;;;;;;5124526;27;20035;-69
2023/12/31 01:34:40;;;;;;;69.40;34.57;;;;;;;;;;5108608;27;20479;-69
2023/12/31 01:37:06;;;;;;;69.55;34.50;;;;;;;;;;5107426;27;20271;-70
2023/12/31 01:39:31;;;;;;;75.57;33.20;;;;;;;;;;5126505;27;20537;-69
2023/12/31 01:41:56;;;;;;;72.70;31.98;;;;;;;;;;5126927;27;20481;-71
2023/12/31 01:44:22;;;;;;;78.32;32.78;;;;;;;;;;5126269;27;20650;-70
2023/12/31 01:46:47;;;;;;;70.57;33.22;;;;;;;;;;5125226;27;20039;-70
2023/12/31 01:49:12;;;;;;;69.88;32.88;;;;;;;;;;5126475;27;20266;-70
2023/12/31 01:51:38;;;;;;;67.10;31.85;;;;;;;;;;5125919;27;20656;-70
2023/12/31 01:54:04;;;;;;;69.82;28.88;;;;;;;;;;5127322;27;20028;-70
2023/12/31 01:56:30;;;;;;;69.10;29.30;;;;;;;;;;5108039;28;20401;-70
2023/12/31 01:58:56;;;;;;;60.38;28.17;;;;;;;;;;5127014;27;20034;-70
2023/12/31 02:01:22;;;;;;;60.45;28.88;;;;;;;;;;5106092;28;20436;-72
2023/12/31 02:03:48;;;;;;;66.32;28.30;;;;;;;;;;5125499;27;20019;-70
2023/12/31 02:06:13;;;;;;;57.58;27.00;;;;;;;;;;5125057;28;20038;-70
2023/12/31 02:08:38;;;;;;;64.10;26.73;;;;;;;;;;5126985;28;20720;-70
2023/12/31 02:11:05;;;;;;;55.03;26.35;;;;;;;;;;5106570;28;20052;-69
2023/12/31 02:13:30;;;;;;;57.70;27.08;;;;;;;;;;5128344;28;20027;-70
2023/12/31 02:15:55;;;;;;;61.37;26.30;;;;;;;;;;5129147;28;20547;-71
2023/12/31 02:18:21;;;;;;;58.73;25.93;;;;;;;;;;5124958;28;20274;-70
2023/12/31 02:20:46;;;;;;;53.95;25.90;;;;;;;;;;5108989;28;20274;-70
2023/12/31 02:23:12;;;;;;;55.97;26.00;;;;;;;;;;5104836;28;20034;-71
2023/12/31 02:25:38;;;;;;;61.67;26.77;;;;;;;;;;5126791;28;20126;-69
2023/12/31 02:28:07;;;;;;;58.60;26.02;;;;;;;;;;5124543;27;20088;-70
2023/12/31 02:30:32;;;;;;;64.75;27.08;;;;;;;;;;5127609;27;20027;-71
2023/12/31 02:32:57;;;;;;;58.22;26.67;;;;;;;;;;5125304;28;20516;-70
2023/12/31 02:35:23;;;;;;;54.47;26.00;;;;;;;;;;5126638;27;20076;-70
2023/12/31 02:37:48;;;;;;;59.85;26.05;;;;;;;;;;5123560;28;21294;-71
2023/12/31 02:40:13;;;;;;;55.60;26.80;;;;;;;;;;5124314;27;20027;-71
2023/12/31 02:42:39;;;;;;;57.30;25.92;;;;;;;;;;5093570;28;20308;-69
2023/12/31 02:45:04;;;;;;;57.03;25.25;;;;;;;;;;5108425;28;20111;-70
2023/12/31 02:47:29;;;;;;;56.75;27.27;;;;;;;;;;5106156;27;20405;-71
2023/12/31 02:49:55;;;;;;;52.25;24.35;;;;;;;;;;5125799;27;20094;-70
2023/12/31 02:52:20;;;;;;;52.70;26.25;;;;;;;;;;5112826;27;20045;-70
2023/12/31 02:54:45;;;;;;;54.35;26.05;;;;;;;;;;5132206;27;21174;-70
2023/12/31 02:57:11;;;;;;;51.97;24.55;;;;;;;;;;5128773;27;20057;-70
2023/12/31 02:59:36;;;;;;;55.47;25.30;;;;;;;;;;5129447;27;20031;-70
2023/12/31 03:02:02;;;;;;;51.10;25.10;;;;;;;;;;5111202;27;20396;-70
2023/12/31 03:04:27;;;;;;;52.15;26.00;;;;;;;;;;5111851;27;20154;-69
2023/12/31 03:06:52;;;;;;;57.17;27.02;;;;;;;;;;5131766;27;20783;-70
2023/12/31 03:09:19;;;;;;;58.83;26.65;;;;;;;;;;5128778;27;20027;-69
2023/12/31 03:11:44;;;;;;;66.53;27.73;;;;;;;;;;5127434;27;20106;-70
2023/12/31 03:14:09;;;;;;;58.40;26.15;;;;;;;;;;5130124;27;20123;-70
2023/12/31 03:16:35;;;;;;;60.90;26.33;;;;;;;;;;5126776;27;20491;-71
2023/12/31 03:19:00;;;;;;;60.50;26.00;;;;;;;;;;5127475;27;20286;-71
2023/12/31 03:21:25;;;;;;;65.60;27.27;;;;;;;;;;5127387;27;20366;-71
2023/12/31 03:23:51;;;;;;;62.53;25.83;;;;;;;;;;5128855;27;20154;-71
2023/12/31 03:26:16;;;;;;;67.27;27.13;;;;;;;;;;5127878;27;20034;-71
2023/12/31 03:28:41;;;;;;;61.50;26.25;;;;;;;;;;5128165;27;20274;-72
2023/12/31 03:31:08;;;;;;;62.70;27.57;;;;;;;;;;5128220;27;20035;-71
2023/12/31 03:33:33;;;;;;;62.03;27.25;;;;;;;;;;5127800;27;20760;-71
2023/12/31 03:35:58;;;;;;;61.95;26.52;;;;;;;;;;5126901;27;20039;-70
2023/12/31 03:38:24;;;;;;;67.00;26.77;;;;;;;;;;5108686;27;20107;-70
2023/12/31 03:40:49;;;;;;;63.63;27.47;;;;;;;;;;5127762;27;21585;-70
2023/12/31 03:43:14;;;;;;;70.50;28.90;;;;;;;;;;5107200;27;20403;-70
2023/12/31 03:45:40;;;;;;;71.22;28.83;;;;;;;;;;5127359;27;20681;-70
2023/12/31 03:48:05;;;;;;;77.32;28.25;;;;;;;;;;5129015;27;20030;-70
2023/12/31 03:50:30;;;;;;;76.05;29.15;;;;;;;;;;5128915;27;20078;-70
2023/12/31 03:52:56;;;;;;;80.38;28.63;;;;;;;;;;5128223;27;20445;-69
2023/12/31 03:55:21;;;;;;;75.70;28.60;;;;;;;;;;5129687;27;20034;-70
2023/12/31 03:57:46;;;;;;;68.30;28.27;;;;;;;;;;5129084;27;20918;-70
2023/12/31 04:00:12;;;;;;;63.30;28.27;;;;;;;;;;5129483;27;20278;-71
2023/12/31 04:02:37;;;;;;;72.28;29.45;;;;;;;;;;5127315;27;20275;-69
2023/12/31 04:05:03;;;;;;;73.65;29.95;;;;;;;;;;5131409;27;20027;-69
2023/12/31 04:07:28;;;;;;;70.82;29.95;;;;;;;;;;5127101;27;20027;-69
2023/12/31 04:09:53;;;;;;;71.82;30.67;;;;;;;;;;5129793;27;20115;-69
2023/12/31 04:12:19;;;;;;;75.15;29.73;;;;;;;;;;5127163;27;20473;-69
2023/12/31 04:14:44;;;;;;;73.15;30.70;;;;;;;;;;5111199;27;20635;-70
2023/12/31 04:17:09;;;;;;;68.70;30.13;;;;;;;;;;5111155;27;20598;-70
2023/12/31 04:19:35;;;;;;;64.60;29.23;;;;;;;;;;5109054;27;20273;-70
2023/12/31 04:22:00;;;;;;;63.33;29.70;;;;;;;;;;5129150;27;20019;-70
2023/12/31 04:24:25;;;;;;;66.13;28.98;;;;;;;;;;5108950;27;20057;-70
2023/12/31 04:26:51;;;;;;;61.60;28.17;;;;;;;;;;5129412;27;20439;-71
2023/12/31 04:29:16;;;;;;;58.03;27.50;;;;;;;;;;5130626;27;20043;-69
2023/12/31 04:31:45;;;;;;;62.40;29.25;;;;;;;;;;5127753;27;20030;-71
2023/12/31 04:34:10;;;;;;;62.70;29.55;;;;;;;;;;5128484;27;20705;-71
2023/12/31 04:36:35;;;;;;;57.22;28.10;;;;;;;;;;5102551;27;20027;-71
2023/12/31 04:39:00;;;;;;;55.55;27.42;;;;;;;;;;5110964;27;20126;-71
2023/12/31 04:41:26;;;;;;;58.23;27.60;;;;;;;;;;5103200;27;20125;-72
2023/12/31 04:43:51;;;;;;;55.75;27.23;;;;;;;;;;5129970;27;20271;-71
2023/12/31 04:46:17;;;;;;;61.50;27.10;;;;;;;;;;5128549;27;20046;-71
2023/12/31 04:48:42;;;;;;;54.83;27.30;;;;;;;;;;5131256;27;20342;-69
2023/12/31 04:51:07;;;;;;;54.97;25.73;;;;;;;;;;5130586;27;20466;-70
2023/12/31 04:53:33;;;;;;;58.88;27.65;;;;;;;;;;5112818;27;20034;-70
2023/12/31 04:55:58;;;;;;;54.03;26.40;;;;;;;;;;5136121;27;20048;-71
2023/12/31 04:58:24;;;;;;;53.33;25.90;;;;;;;;;;5135347;27;20349;-71
2023/12/31 05:00:49;;;;;;;54.47;26.05;;;;;;;;;;5129316;27;20341;-71
2023/12/31 05:03:14;;;;;;;48.65;24.63;;;;;;;;;;5130834;27;20777;-70
2023/12/31 05:05:40;;;;;;;52.63;24.83;;;;;;;;;;5114682;27;20031;-70
2023/12/31 05:08:05;;;;;;;57.30;25.42;;;;;;;;;;5131872;27;20279;-72
2023/12/31 05:10:30;;;;;;;52.72;23.90;;;;;;;;;;5134383;27;20062;-72
2023/12/31 05:12:56;;;;;;;57.47;24.90;;;;;;;;;;5132653;27;20035;-72
2023/12/31 05:15:22;;;;;;;57.45;24.92;;;;;;;;;;5133869;27;20031;-72
2023/12/31 05:17:47;;;;;;;58.93;24.67;;;;;;;;;;5135308;27;20019;-72
2023/12/31 05:20:12;;;;;;;61.58;25.10;;;;;;;;;;5133437;27;20401;-73
2023/12/31 05:22:37;;;;;;;56.23;25.03;;;;;;;;;;5134823;27;20031;-72
2023/12/31 05:25:03;;;;;;;53.38;25.23;;;;;;;;;;5131502;27;20276;-72
2023/12/31 05:27:28;;;;;;;53.58;23.98;;;;;;;;;;5136617;27;20134;-71
2023/12/31 05:29:53;;;;;;;52.50;24.37;;;;;;;;;;5114084;27;20151;-72
2023/12/31 05:32:19;;;;;;;55.00;24.70;;;;;;;;;;5135185;27;20282;-72
2023/12/31 05:34:44;;;;;;;51.08;24.33;;;;;;;;;;5137212;27;20292;-72
2023/12/31 05:37:10;;;;;;;48.08;23.48;;;;;;;;;;5134110;27;20056;-72
2023/12/31 05:39:35;;;;;;;50.88;23.58;;;;;;;;;;5132153;27;20028;-72
2023/12/31 05:42:00;;;;;;;46.95;23.58;;;;;;;;;;5110425;27;20035;-72
2023/12/31 05:44:25;;;;;;;49.63;23.38;;;;;;;;;;5138471;27;20026;-72
2023/12/31 05:46:51;;;;;;;48.65;23.77;;;;;;;;;;5134892;27;20029;-72
2023/12/31 05:49:16;;;;;;;48.17;22.37;;;;;;;;;;5133969;27;20065;-72
2023/12/31 05:51:41;;;;;;;48.77;23.03;;;;;;;;;;5130460;27;20298;-72
2023/12/31 05:54:06;;;;;;;48.40;23.93;;;;;;;;;;5126384;27;20347;-71
2023/12/31 05:56:32;;;;;;;48.33;23.17;;;;;;;;;;5125957;27;20283;-72
2023/12/31 05:58:57;;;;;;;52.80;23.98;;;;;;;;;;5125313;27;20339;-72
2023/12/31 06:01:22;;;;;;;49.92;23.33;;;;;;;;;;5125871;27;20046;-72
2023/12/31 06:03:48;;;;;;;48.90;23.05;;;;;;;;;;5124948;27;20113;-71
2023/12/31 06:06:13;;;;;;;47.67;22.60;;;;;;;;;;5126455;27;20424;-72
2023/12/31 06:08:38;;;;;;;48.78;23.83;;;;;;;;;;5104853;28;20360;-72
2023/12/31 06:11:03;;;;;;;51.78;24.65;;;;;;;;;;5125419;28;20103;-71
2023/12/31 06:13:29;;;;;;;45.87;23.73;;;;;;;;;;5122911;27;20073;-71
2023/12/31 06:15:54;;;;;;;46.42;22.13;;;;;;;;;;5119467;28;20753;-70
2023/12/31 06:18:20;;;;;;;46.90;22.80;;;;;;;;;;5124692;28;20023;-70
2023/12/31 06:20:45;;;;;;;47.40;23.47;;;;;;;;;;5124765;28;20695;-72
2023/12/31 06:23:10;;;;;;;48.85;22.95;;;;;;;;;;5102615;28;20274;-71
2023/12/31 06:25:35;;;;;;;44.93;21.80;;;;;;;;;;5129616;27;20015;-72
2023/12/31 06:28:01;;;;;;;47.15;22.88;;;;;;;;;;5129003;27;20281;-71
2023/12/31 06:30:26;;;;;;;44.22;22.48;;;;;;;;;;5129433;27;20027;-71
2023/12/31 06:32:51;;;;;;;48.40;23.00;;;;;;;;;;5127442;27;20019;-73
2023/12/31 06:35:17;;;;;;;47.40;22.35;;;;;;;;;;5130858;27;20435;-72
2023/12/31 06:37:42;;;;;;;49.90;23.92;;;;;;;;;;5130634;27;20077;-72
2023/12/31 06:40:08;;;;;;;47.22;23.13;;;;;;;;;;5128779;27;20031;-73
2023/12/31 06:42:33;;;;;;;50.55;23.67;;;;;;;;;;5112374;27;20437;-71
2023/12/31 06:44:59;;;;;;;53.33;25.50;;;;;;;;;;5128494;27;20059;-71
2023/12/31 06:47:24;;;;;;;58.20;24.80;;;;;;;;;;5128846;27;20034;-72
2023/12/31 06:49:51;;;;;;;50.45;23.42;;;;;;;;;;5126925;27;20031;-70
2023/12/31 06:52:17;;;;;;;50.17;24.10;;;;;;;;;;5127160;27;20019;-74
2023/12/31 06:54:42;;;;;;;51.60;24.70;;;;;;;;;;5126613;27;20118;-75
2023/12/31 06:57:08;;;;;;;48.33;23.67;;;;;;;;;;5111115;27;20283;-75
2023/12/31 06:59:34;;;;;;;44.75;22.75;;;;;;;;;;5131096;27;20462;-73
2023/12/31 07:01:59;;;;;;;49.13;23.63;;;;;;;;;;5129700;27;20027;-74
2023/12/31 07:04:24;;;;;;;48.53;23.45;;;;;;;;;;5130038;27;20030;-74
2023/12/31 07:06:49;;;;;;;47.03;23.42;;;;;;;;;;5110373;27;20062;-74
2023/12/31 07:09:15;;;;;;;46.60;22.80;;;;;;;;;;5109672;27;20412;-73
2023/12/31 07:11:41;;;;;;;46.80;22.67;;;;;;;;;;5111352;27;20046;-75
2023/12/31 07:14:06;;;;;;;49.08;23.10;;;;;;;;;;5129090;27;20027;-73
2023/12/31 07:16:31;;;;;;;47.85;23.58;;;;;;;;;;5123821;27;20023;-72
2023/12/31 07:18:57;;;;;;;46.87;22.50;;;;;;;;;;5123887;27;20053;-70
2023/12/31 07:21:22;;;;;;;48.28;21.70;;;;;;;;;;5124214;27;20279;-72
2023/12/31 07:23:48;;;;;;;48.28;23.88;;;;;;;;;;5126958;27;20644;-73
2023/12/31 07:26:22;;;;;;;46.90;22.20;;;;;;;;;;5127949;27;20528;-72
2023/12/31 07:28:47;;;;;;;43.97;21.20;;;;;;;;;;5108122;27;20027;-71
2023/12/31 07:31:13;;;;;;;44.97;22.67;;;;;;;;;;5108005;27;20097;-74
2023/12/31 07:33:38;;;;;;;46.23;22.77;;;;;;;;;;5110149;27;20092;-71
2023/12/31 07:36:03;;;;;;;42.67;21.75;;;;;;;;;;5122109;27;20322;-73
2023/12/31 07:38:28;;;;;;;49.30;23.08;;;;;;;;;;5126855;27;20091;-71
2023/12/31 07:40:54;;;;;;;44.40;22.10;;;;;;;;;;5125913;27;20139;-72
2023/12/31 07:43:19;;;;;;;46.28;23.17;;;;;;;;;;5128777;27;20056;-70
2023/12/31 07:45:44;;;;;;;45.07;21.97;;;;;;;;;;5107468;27;20023;-71
2023/12/31 07:48:11;;;;;;;45.88;21.90;;;;;;;;;;5126847;27;20297;-70
2023/12/31 07:50:36;;;;;;;43.40;21.05;;;;;;;;;;5126458;27;20039;-71
2023/12/31 07:53:02;;;;;;;42.40;21.53;;;;;;;;;;5128484;27;20046;-70
2023/12/31 07:55:28;;;;;;;42.03;20.48;;;;;;;;;;5128041;27;20924;-71
2023/12/31 07:57:53;;;;;;;43.15;21.10;;;;;;;;;;5129178;27;20474;-69
2023/12/31 08:00:18;;;;;;;44.85;21.60;;;;;;;;;;5109834;27;20073;-68
2023/12/31 08:02:44;;;;;;;37.47;19.38;;;;;;;;;;5128298;27;20119;-69
2023/12/31 08:05:11;;;;;;;41.63;20.23;;;;;;;;;;5126106;27;20613;-68
2023/12/31 08:07:36;;;;;;;40.92;20.50;;;;;;;;;;5127742;27;20042;-69
2023/12/31 08:10:01;;;;;;;45.60;21.38;;;;;;;;;;5111081;27;20023;-67
2023/12/31 08:12:26;;;;;;;41.88;20.48;;;;;;;;;;5107476;27;20475;-68
2023/12/31 08:14:52;;;;;;;39.47;20.47;;;;;;;;;;5123554;27;20060;-68
2023/12/31 08:17:17;;;;;;;40.58;20.25;;;;;;;0.97;nan;100927.56;5106623;27;20279;-68
2023/12/31 08:19:43;;;;;;;42.60;19.75;;;;;;;1.11;nan;100927.06;5125741;27;20054;-67
2023/12/31 08:22:08;;;;;;;43.72;21.10;;;;;;;1.15;nan;100912.00;5126034;27;20063;-68
2023/12/31 08:24:33;;;;;;;43.47;20.92;;;;;;;1.30;nan;100923.47;5127948;27;20046;-68
2023/12/31 08:26:59;;;;;;;42.80;22.88;;;;;;;1.37;nan;100921.91;5123163;27;20034;-68
2023/12/31 08:29:24;;;;;;;43.90;21.52;;;;;;;1.37;nan;100905.53;5125353;27;20027;-67
2023/12/31 08:31:52;;;;;;;41.05;20.33;;;;;;;1.58;nan;100925.91;5108779;27;20041;-67
2023/12/31 08:34:18;;;;;;;38.92;19.27;;;;;;;1.76;nan;100934.47;5107217;27;20031;-69
2023/12/31 08:36:43;;;;;;;36.90;19.05;;;;;;;1.89;nan;100942.66;5106261;27;20019;-68
2023/12/31 08:39:09;;;;;;;39.38;20.40;;;;;;;1.99;nan;100946.91;5127487;27;20048;-68
2023/12/31 08:41:35;;;;;;;39.55;19.98;;;;;;;1.90;nan;100926.09;5125270;27;20076;-68
2023/12/31 08:44:00;;;;;;;39.15;19.95;;;;;;;;;;5123789;27;20063;-70
2023/12/31 08:46:26;;;;;;;31.50;17.83;;;;;;;;;;5124872;27;20030;-69
2023/12/31 08:48:51;;;;;;;30.60;16.87;;;;;;;;;;5106407;27;20059;-69
2023/12/31 08:51:16;;;;;;;28.65;16.25;;;;;;;;;;5125939;27;20278;-69
2023/12/31 08:53:42;;;;;;;33.33;16.95;;;;;;;;;;5128981;27;20031;-70
2023/12/31 08:56:08;;;;;;;32.85;18.42;;;;;;;;;;5124045;27;20076;-69
2023/12/31 08:58:33;;;;;;;33.15;18.00;;;;;;;;;;5110037;27;20652;-69
2023/12/31 09:00:58;;;;;;;33.77;18.07;;;;;;;;;;5125066;27;20064;-69
2023/12/31 09:03:24;;;;;;;33.35;18.92;;;;;;;2.85;nan;100940.66;5126591;27;20271;-68
2023/12/31 09:05:49;;;;;;;31.75;17.27;;;;;;;2.98;nan;100934.03;5122129;27;20108;-69
2023/12/31 09:08:15;;;;;;;32.15;18.67;;;;;;;3.09;nan;100932.91;5122546;27;20027;-67
2023/12/31 09:10:41;;;;;;;30.83;16.27;;;;;;;3.19;nan;100940.53;5106847;27;20042;-70
2023/12/31 09:13:06;;;;;;;31.85;16.98;;;;;;;3.15;nan;100911.41;5108800;27;20027;-73
2023/12/31 09:15:32;;;;;;;30.17;17.38;;;;;;;3.38;nan;100915.97;5123764;27;20434;-69
2023/12/31 09:17:57;;;;;;;28.25;16.42;;;;;;;3.56;nan;100926.97;5121875;27;20034;-70
2023/12/31 09:20:22;;;;;;;28.48;16.60;;;;;;;3.60;nan;100912.66;5106486;27;20019;-69
2023/12/31 09:22:52;;;;;;;24.38;14.90;;;;;;;3.83;nan;100925.81;5106362;27;20392;-69
2023/12/31 09:25:18;;;;;;;29.80;16.05;;;;;;;3.79;nan;100910.66;5126806;27;20075;-70
2023/12/31 09:27:44;;;;;;;26.48;15.57;;;;;;;3.93;nan;100903.97;5127019;27;20038;-68
2023/12/31 09:30:09;;;;;;;28.20;16.42;;;;;;;4.09;nan;100903.06;5125416;27;20053;-69
2023/12/31 09:32:35;;;;;;;26.52;15.27;;;;;;;4.27;nan;100916.66;5124589;27;20015;-68
2023/12/31 09:35:00;;;;;;;25.17;15.48;;;;;;;4.43;nan;100902.72;5122294;27;20084;-67
2023/12/31 09:37:26;;;;;;;27.30;14.60;;;;;;;4.55;nan;100905.75;5125273;27;20108;-69
2023/12/31 09:39:52;;;;;;;26.35;15.43;;;;;;;4.56;nan;100886.53;5125101;27;20027;-69
2023/12/31 09:42:32;;;;;;;24.75;14.40;;;;;;;4.80;nan;100894.16;5125115;27;20016;-69
2023/12/31 09:44:59;;;;;;;21.95;13.32;;;;;;;4.95;nan;100896.00;5125621;27;20038;-68
2023/12/31 09:47:24;;;;;;;23.55;13.63;;;;;;;;;;5124977;27;20087;-66
2023/12/31 09:49:50;;;;;;;23.38;13.95;;;;;;;;;;5127500;27;20026;-67
2023/12/31 09:52:15;;;;;;;26.90;14.05;;;;;;;;;;5104305;27;20031;-69
2023/12/31 09:54:41;;;;;;;21.80;13.40;;;;;;;;;;5125562;27;20049;-69
2023/12/31 09:57:06;;;;;;;23.13;12.52;;;;;;;;;;5125718;27;20053;-67
2023/12/31 09:59:32;;;;;;;23.40;14.52;;;;;;;;;;5124096;27;20106;-67
2023/12/31 10:02:04;;;;;;;27.98;15.50;;;;;;;;;;5125957;27;20059;-69
2023/12/31 10:04:30;;;;;;;27.95;15.73;;;;;;;;;;5122240;27;20027;-66
2023/12/31 10:06:56;;;;;;;27.13;15.65;;;;;;;;;;5116915;27;20027;-69
2023/12/31 10:09:23;;;;;;;30.75;15.18;;;;;;;;;;5123970;28;21426;-68
2023/12/31 10:11:49;;;;;;;24.10;15.00;;;;;;;;;;5122440;28;20116;-67
2023/12/31 10:14:15;;;;;;;26.20;15.82;;;;;;;;;;5102291;28;20070;-67
2023/12/31 10:16:43;;;;;;;28.58;16.48;;;;;;;;;;5103896;28;20041;-69
2023/12/31 10:19:09;;;;;;;34.78;17.95;;;;;;;;;;5123501;28;20027;-68
2023/12/31 10:21:34;;;;;;;29.90;16.45;;;;;;;;;;5122545;28;20099;-68
2023/12/31 10:23:59;;;;;;;32.65;17.08;;;;;;;;;;5128114;27;20143;-69
2023/12/31 10:26:25;;;;;;;33.37;18.17;;;;;;;;;;5125187;28;20019;-69
2023/12/31 10:28:50;;;;;;;28.17;17.27;;;;;;;;;;5126831;27;20678;-68
2023/12/31 10:31:15;;;;;;;28.88;16.05;;;;;;;;;;5126546;28;20283;-69
2023/12/31 10:33:41;;;;;;;30.67;17.25;;;;;;;;;;5127284;28;20031;-68
2023/12/31 10:36:07;;;;;;;26.70;16.75;;;;;;;;;;5126111;28;20019;-68
2023/12/31 10:38:45;;;;;;;30.65;17.35;;;;;;;;;;5125608;28;20543;-68
2023/12/31 10:41:14;;;;;;;30.33;17.33;;;;;;;;;;5128389;28;20030;-66
2023/12/31 10:43:39;;;;;;;26.43;15.67;;;;;;;;;;5129162;27;20038;-67
2023/12/31 10:46:06;;;;;;;26.95;16.48;;;;;;;;;;5126787;28;20633;-67
2023/12/31 10:48:32;;;;;;;25.58;15.75;;;;;;;;;;5124589;27;20027;-69
2023/12/31 10:50:59;;;;;;;29.13;16.77;;;;;;;;;;5124714;28;20048;-67
2023/12/31 10:53:25;;;;;;;27.38;17.23;;;;;;;;;;5128503;27;20034;-70
2023/12/31 10:55:52;;;;;;;32.45;16.33;;;;;;;;;;5127062;27;20027;-68
2023/12/31 10:58:18;;;;;;;28.05;15.90;;;;;;;;;;5127199;28;20027;-69
2023/12/31 11:00:44;;;;;;;28.73;17.45;;;;;;;;;;5122336;28;20432;-69
2023/12/31 11:03:10;;;;;;;28.98;16.40;;;;;;;;;;5125229;27;20047;-68
2023/12/31 11:05:38;;;;;;;26.75;15.93;;;;;;;;;;5102538;28;20030;-69
2023/12/31 11:08:04;;;;;;;28.08;16.98;;;;;;;;;;5106594;28;20110;-69
2023/12/31 11:10:30;;;;;;;26.13;14.82;;;;;;;;;;5121494;27;20061;-69
2023/12/31 11:12:56;;;;;;;25.08;15.40;;;;;;;;;;5118192;27;20031;-72
2023/12/31 11:15:21;;;;;;;24.63;15.80;;;;;;;;;;5125113;27;20481;-70
2023/12/31 11:18:05;;;;;;;24.50;14.80;;;;;;;;;;5122535;27;20034;-69
2023/12/31 11:20:34;;;;;;;23.55;14.13;;;;;;;;;;5122769;27;20111;-70
2023/12/31 11:23:23;;;;;;;24.20;15.02;;;;;;;;;;5127342;27;20023;-70
2023/12/31 11:25:49;;;;;;;25.88;15.57;;;;;;;;;;5127489;27;20023;-71
2023/12/31 11:28:15;;;;;;;24.58;14.35;;;;;;;;;;5126575;27;20079;-71
2023/12/31 11:30:51;;;;;;;23.13;15.25;;;;;;;;;;5129089;27;20027;-70
2023/12/31 11:33:20;;;;;;;24.75;14.65;;;;;;;;;;5125080;27;20027;-71
2023/12/31 11:35:46;;;;;;;24.40;14.45;;;;;;;;;;5110186;27;20047;-69
2023/12/31 11:38:12;;;;;;;25.83;14.73;;;;;;;;;;5128758;27;20047;-70
2023/12/31 11:40:37;;;;;;;23.27;14.40;;;;;;;;;;5126253;27;20026;-70
2023/12/31 11:43:13;;;;;;;25.80;13.73;;;;;;;;;;5110448;27;20027;-68
2023/12/31 11:45:40;;;;;;;25.73;14.25;;;;;;;;;;5128101;27;20205;-70
2023/12/31 11:48:15;;;;;;;23.23;13.57;;;;;;;;;;5130442;27;20023;-70
2023/12/31 11:50:40;;;;;;;24.95;13.23;;;;;;;;;;5099896;27;20095;-69
2023/12/31 11:53:07;;;;;;;20.85;12.45;;;;;;;;;;5119263;27;20430;-69
2023/12/31 11:55:35;;;;;;;21.02;11.95;;;;;;;;;;5108322;27;20027;-70
2023/12/31 11:58:01;;;;;;;21.63;13.23;;;;;;;;;;5129662;27;20042;-68
2023/12/31 12:00:27;;;;;;;22.35;12.43;;;;;;;;;;5125642;27;20035;-68
2023/12/31 12:02:52;;;;;;;19.35;11.70;;;;;;;;;;5129615;27;20118;-69
2023/12/31 12:05:17;;;;;;;19.02;11.65;;;;;;;;;;5129350;27;20389;-69
2023/12/31 12:07:44;;;;;;;20.05;11.95;;;;;;;;;;5129000;27;20027;-69
2023/12/31 12:10:09;;;;;;;19.10;12.23;;;;;;;;;;5109299;27;20027;-69
2023/12/31 12:12:34;;;;;;;20.95;12.30;;;;;;;;;;5108519;27;20027;-69
2023/12/31 12:15:03;;;;;;;21.67;11.90;;;;;;;;;;5128558;27;20106;-67
2023/12/31 12:17:28;;;;;;;18.70;12.30;;;;;;;;;;5110081;27;20414;-68
2023/12/31 12:19:54;;;;;;;19.92;11.55;;;;;;;;;;5124231;27;20904;-69
2023/12/31 12:22:19;;;;;;;20.55;11.27;;;;;;;;;;5105120;27;20052;-68
2023/12/31 12:24:46;;;;;;;18.50;10.95;;;;;;;;;;5126563;27;20075;-69
2023/12/31 12:27:11;;;;;;;14.30;9.55;;;;;;;;;;5120150;27;20304;-68
2023/12/31 12:29:40;;;;;;;16.83;10.07;;;;;;;9.93;nan;100597.81;5106330;27;20031;-67
2023/12/31 12:32:06;;;;;;;13.63;8.18;;;;;;;10.07;nan;100585.34;5122510;27;20027;-68
2023/12/31 12:34:32;;;;;;;13.75;8.77;;;;;;;10.20;nan;100588.66;5125143;27;20035;-68
2023/12/31 12:36:59;;;;;;;15.55;9.73;;;;;;;10.42;nan;100599.59;5123941;27;21431;-70
2023/12/31 12:39:24;;;;;;;18.10;10.45;;;;;;;10.58;nan;100597.41;5121105;27;20438;-70
2023/12/31 12:41:52;;;;;;;18.58;10.25;;;;;;;10.59;nan;100585.88;5124593;27;20038;-71
2023/12/31 12:44:22;;;;;;;14.43;9.38;;;;;;;10.77;nan;100600.84;5125781;27;20680;-71
2023/12/31 12:46:50;;;;;;;16.80;10.65;;;;;;;10.91;nan;100601.47;5123388;27;20079;-71
2023/12/31 12:49:15;;;;;;;22.05;11.95;;;;;;;11.02;nan;100612.09;5126984;27;20022;-70
2023/12/31 12:51:42;;;;;;;16.02;11.32;;;;;;;11.01;nan;100596.47;5102245;28;20457;-71
2023/12/31 12:54:08;;;;;;;20.92;12.35;;;;;;;;;;5116203;27;20444;-70
2023/12/31 12:56:34;;;;;;;18.17;11.88;;;;;;;;;;5102528;28;20079;-71
2023/12/31 12:58:59;;;;;;;18.58;12.27;;;;;;;;;;5106020;28;20059;-71
2023/12/31 13:01:25;;;;;;;20.52;12.40;;;;;;;;;;5103025;28;20076;-70
2023/12/31 13:03:52;;;;;;;22.13;12.23;;;;;;;;;;5103739;28;20406;-71
2023/12/31 13:06:17;;;;;;;21.00;12.38;;;;;;;;;;5105416;28;20034;-71
2023/12/31 13:08:42;;;;;;;20.02;12.40;;;;;;;;;;5104302;28;20031;-72
2023/12/31 13:11:08;;;;;;;24.50;13.57;;;;;;;;;;5102093;28;20051;-71
2023/12/31 13:13:33;;;;;;;21.33;13.43;;;;;;;;;;5103099;28;20272;-72
2023/12/31 13:15:58;;;;;;;27.73;15.00;;;;;;;11.56;nan;100577.84;5109009;28;20027;-70
2023/12/31 13:18:25;;;;;;;22.30;14.05;;;;;;;11.55;nan;100568.34;5102814;28;20055;-71
2023/12/31 13:20:51;;;;;;;24.48;14.45;;;;;;;11.74;nan;100589.38;5106559;28;20466;-70
2023/12/31 13:23:16;;;;;;;25.17;14.95;;;;;;;11.58;nan;100562.59;5102056;28;20015;-69
2023/12/31 13:25:42;;;;;;;25.95;15.45;;;;;;;11.68;nan;100565.50;5104980;28;20034;-71
2023/12/31 13:28:07;;;;;;;26.92;15.80;;;;;;;11.66;nan;100557.03;5104833;28;20019;-68
2023/12/31 13:30:34;;;;;;;22.92;14.32;;;;;;;11.68;nan;100547.03;5106421;28;20019;-70
2023/12/31 13:33:03;;;;;;;27.27;15.70;;;;;;;11.73;nan;100566.63;5105223;28;20031;-70
2023/12/31 13:35:28;;;;;;;26.67;15.90;;;;;;;11.58;nan;100538.88;5103760;28;20161;-69
2023/12/31 13:37:54;;;;;;;24.60;16.15;;;;;;;11.79;nan;100555.97;5103768;28;20540;-70